ADDS METAR Data INFO
IDs: Format: Raw Decoded Include TAF

Data at: 1922 UTC 16 Aug 2017

KF00 161915Z AUTO 19013G21KT 10SM SCT038 32/23 A2992 RMK AO2
KF00 161855Z AUTO 21013G18KT 10SM SCT034 31/23 A2993 RMK AO2
KF00 161835Z AUTO 20011G20KT 10SM SCT034 SCT080 32/24 A2993 RMK AO2
KF00 161815Z AUTO 19015G19KT 10SM SCT032 SCT080 31/24 A2994 RMK AO2
KF00 161755Z AUTO 21013G24KT 10SM SCT030 SCT090 31/24 A2994 RMK AO2
KF00 161735Z AUTO 19011KT 10SM SCT026 29/24 A2994 RMK AO2 LTG DSNT NE
KF00 161715Z AUTO 19012G17KT 10SM SCT026 SCT085 29/23 A2995 RMK AO2 LTG DSNT N
KF00 161655Z AUTO 19016G21KT 10SM SCT026 BKN085 29/23 A2995 RMK AO2 LTG DSNT N
KF00 161640Z AUTO 19016G22KT 10SM VCTS SCT026 BKN085 29/23 A2996 RMK AO2 LTG DSNT N
KF00 161615Z AUTO 20017G22KT 10SM SCT022 SCT075 28/23 A2995 RMK AO2 LTG DSNT N
KF00 161555Z AUTO 19014G20KT 10SM SCT022 SCT075 SCT085 29/23 A2995 RMK AO2
KF00 161535Z AUTO 19011G21KT 10SM SCT020 BKN075 BKN085 27/23 A2995 RMK AO2
KF00 161515Z AUTO 19015G19KT 10SM SCT020 SCT075 27/23 A2995 RMK AO2
KF00 161455Z AUTO 20014G19KT 10SM SCT018 BKN075 27/23 A2995 RMK AO2
KF00 161435Z AUTO 19016G23KT 10SM BKN018 27/23 A2995 RMK AO2
KF00 161415Z AUTO 20017G26KT 10SM OVC020 27/23 A2994 RMK AO2
KF00 161355Z AUTO 20015G20KT 10SM OVC018 26/23 A2994 RMK AO2
KF00 161335Z AUTO 19015G22KT 10SM BKN016 26/23 A2993 RMK AO2
KF00 161315Z AUTO 19014G19KT 10SM SCT016 26/23 A2993 RMK AO2
KF00 161255Z AUTO 19015G19KT 10SM SCT016 25/22 A2992 RMK AO2
KF00 161235Z AUTO 19012KT 10SM SCT016 25/22 A2992 RMK AO2
KF00 161215Z AUTO 18012G20KT 10SM CLR 25/22 A2991 RMK AO2
KF00 161155Z AUTO 18012G16KT 10SM SCT120 25/22 A2991 RMK AO2
KF00 161135Z AUTO 18011KT 10SM SCT110 26/22 A2990 RMK AO2
KF00 161115Z AUTO 18012KT 10SM SCT120 26/22 A2989 RMK AO2
KF00 161055Z AUTO 19009G16KT 10SM BKN120 26/22 A2988 RMK AO2
KF00 161035Z AUTO 19011G16KT 10SM SCT120 26/22 A2988 RMK AO2
KF00 161015Z AUTO 18010G15KT 10SM SCT120 26/22 A2988 RMK AO2
KF00 160955Z AUTO 18011G15KT 10SM SCT120 26/22 A2987 RMK AO2
KF00 160935Z AUTO 18010KT 10SM OVC120 26/22 A2987 RMK AO2
KF00 160915Z AUTO 18009G16KT 10SM OVC120 26/22 A2987 RMK AO2
KF00 160855Z AUTO 18010KT 10SM OVC120 26/22 A2987 RMK AO2
KF00 160835Z AUTO 18009KT 10SM BKN120 26/22 A2987 RMK AO2
KF00 160815Z AUTO 17008KT 10SM SCT120 26/22 A2987 RMK AO2
KF00 160755Z AUTO 17009KT 10SM CLR 26/22 A2987 RMK AO2
KF00 160735Z AUTO 17006KT 10SM CLR 27/22 A2987 RMK AO2
KF00 160715Z AUTO 17007KT 10SM CLR 27/22 A2986 RMK AO2
KF00 160655Z AUTO 17009KT 10SM CLR 27/22 A2986 RMK AO2
KF00 160635Z AUTO 16009KT 10SM CLR 27/22 A2987 RMK AO2
KF00 160615Z AUTO 16008KT 10SM CLR 27/22 A2987 RMK AO2
KF00 160555Z AUTO 15008KT 10SM CLR 27/23 A2988 RMK AO2
KF00 160535Z AUTO 14007KT 10SM CLR 27/23 A2988 RMK AO2
KF00 160515Z AUTO 15007KT 10SM CLR 27/23 A2988 RMK AO2
KF00 160455Z AUTO 14008KT 10SM CLR 27/23 A2988 RMK AO2
KF00 160435Z AUTO 15006KT 10SM CLR 27/23 A2987 RMK AO2
KF00 160415Z AUTO 14007KT 10SM CLR 26/23 A2987 RMK AO2
KF00 160355Z AUTO 13005KT 10SM CLR 26/23 A2988 RMK AO2
KF00 160335Z AUTO 12006KT 10SM CLR 27/23 A2987 RMK AO2
KF00 160315Z AUTO 12006KT 10SM CLR 27/23 A2987 RMK AO2
KF00 160255Z AUTO 12006KT 10SM CLR 27/23 A2986 RMK AO2
KF00 160235Z AUTO 12006KT 10SM CLR 28/23 A2985 RMK AO2 LTG DSNT N
KF00 160215Z AUTO 12006KT 7SM CLR 28/23 A2984 RMK AO2
KF00 160155Z AUTO 13007KT 10SM CLR 28/23 A2983 RMK AO2
KF00 160135Z AUTO 13007KT 10SM CLR 28/23 A2982 RMK AO2 LTG DSNT N
KF00 160115Z AUTO 12006KT 10SM CLR 29/23 A2982 RMK AO2 LTG DSNT N
KF00 160055Z AUTO 13005KT 10SM CLR 29/23 A2982 RMK AO2
KF00 160035Z AUTO 14007KT 10SM CLR 29/23 A2982 RMK AO2
KF00 160015Z AUTO 14011KT 10SM CLR 31/23 A2980 RMK AO2
KF00 152355Z AUTO 16008G14KT 10SM CLR 31/23 A2980 RMK AO2
KF00 152335Z AUTO 15010KT 10SM CLR 31/23 A2979 RMK AO2
KF00 152315Z AUTO 15011KT 10SM CLR 32/23 A2979 RMK AO2
KF00 152255Z AUTO 17011KT 10SM CLR 32/23 A2979 RMK AO2 LTG DSNT N
KF00 152235Z AUTO 18012KT 10SM CLR 32/23 A2979 RMK AO2 LTG DSNT N
KF00 152215Z AUTO 19011KT 10SM CLR 32/23 A2980 RMK AO2
KF00 152155Z AUTO 18010G16KT 10SM CLR 32/24 A2981 RMK AO2
KF00 152135Z AUTO 19013KT 10SM CLR 32/23 A2982 RMK AO2
KF00 152115Z AUTO 18009KT 10SM CLR 32/22 A2983 RMK AO2
KF00 152055Z AUTO 20011G16KT 10SM CLR 32/23 A2984 RMK AO2
KF00 152035Z AUTO 19009KT 10SM CLR 31/22 A2984 RMK AO2
KF00 152015Z AUTO 20010KT 10SM CLR 31/23 A2985 RMK AO2
KF00 151955Z AUTO 19010KT 10SM CLR 31/23 A2985 RMK AO2
KF00 151935Z AUTO 20007KT 10SM CLR 31/22 A2985 RMK AO2
KF00 151915Z AUTO 18008KT 10SM CLR 31/24 A2986 RMK AO2
KF00 151855Z AUTO 17010G15KT 10SM CLR 31/24 A2987 RMK AO2
KF00 151835Z AUTO 20009G16KT 10SM CLR 30/23 A2988 RMK AO2
KF00 151815Z AUTO 19007KT 10SM SCT120 30/24 A2988 RMK AO2
KF00 151755Z AUTO 19011KT 10SM BKN120 28/23 A2989 RMK AO2
KF00 151735Z AUTO 22011KT 10SM SCT120 28/23 A2990 RMK AO2
KF00 151715Z AUTO 18009KT 10SM CLR 27/23 A2990 RMK AO2
KF00 151655Z AUTO 17009KT 10SM SCT080 SCT100 28/24 A2991 RMK AO2
KF00 151635Z AUTO 18009KT 10SM SCT065 BKN080 BKN120 26/23 A2991 RMK AO2
KF00 151615Z AUTO 20009KT 10SM SCT075 BKN110 26/23 A2991 RMK AO2
KF00 151555Z AUTO 19009KT 10SM SCT075 OVC100 26/23 A2991 RMK AO2
KF00 151535Z AUTO 18008KT 10SM OVC100 26/23 A2990 RMK AO2
KF00 151515Z AUTO 19011KT 10SM SCT080 OVC100 26/23 A2990 RMK AO2
KF00 151455Z AUTO 20013KT 10SM BKN100 27/23 A2989 RMK AO2
KF00 151435Z AUTO 20010KT 10SM SCT100 27/23 A2988 RMK AO2
KF00 151415Z AUTO 19010KT 10SM CLR 26/23 A2988 RMK AO2
KF00 151355Z AUTO 19008KT 10SM CLR 26/22 A2987 RMK AO2
KF00 151335Z AUTO 19008KT 10SM CLR 25/22 A2987 RMK AO2
KF00 151315Z AUTO 18007KT 10SM CLR 25/22 A2986 RMK AO2
KF00 151255Z AUTO 18008KT 10SM CLR 25/22 A2986 RMK AO2
KF00 151235Z AUTO 18007KT 10SM CLR 25/22 A2985 RMK AO2
KF00 151215Z AUTO 18008KT 10SM CLR 24/22 A2985 RMK AO2
KF00 151155Z AUTO 18007KT 10SM SCT110 25/21 A2985 RMK AO2
KF00 151135Z AUTO 19007KT 10SM CLR 25/21 A2985 RMK AO2
KF00 151115Z AUTO 19008KT 10SM CLR 25/21 A2984 RMK AO2
KF00 151055Z AUTO 19009KT 10SM CLR 25/22 A2984 RMK AO2
KF00 151035Z AUTO 19008KT 10SM CLR 25/22 A2983 RMK AO2
KF00 151015Z AUTO 18009KT 10SM SCT070 25/22 A2983 RMK AO2
KF00 150955Z AUTO 18008KT 10SM SCT070 25/22 A2983 RMK AO2
KF00 150935Z AUTO 18009KT 10SM CLR 25/22 A2983 RMK AO2
KF00 150915Z AUTO 18009KT 10SM CLR 25/22 A2982 RMK AO2
KF00 150855Z AUTO 18009KT 10SM CLR 25/23 A2982 RMK AO2
KF00 150835Z AUTO 18009KT 10SM CLR 25/23 A2982 RMK AO2
KF00 150815Z AUTO 18010KT 10SM CLR 25/23 A2981 RMK AO2
KF00 150755Z AUTO 17007KT 10SM CLR 25/23 A2981 RMK AO2
KF00 150735Z AUTO 17007KT 10SM CLR 25/23 A2981 RMK AO2